createdAt,value
2022-09-17T00:00:06.879Z,8.18
2022-09-17T00:02:38.367Z,7.43
2022-09-17T00:05:08.370Z,7.65
2022-09-17T00:07:37.466Z,7.65
2022-09-17T00:10:08.473Z,8.70
2022-09-17T00:12:37.324Z,7.18
2022-09-17T00:15:08.681Z,7.57
2022-09-17T00:17:37.562Z,8.23
2022-09-17T00:20:09.562Z,7.47
2022-09-17T00:22:39.049Z,6.85
2022-09-17T00:25:10.000Z,8.27
2022-09-17T00:27:39.778Z,7.13
2022-09-17T00:30:10.283Z,7.72
2022-09-17T00:32:39.483Z,7.93
2022-09-17T00:35:09.261Z,7.95
2022-09-17T00:37:38.122Z,8.15
2022-09-17T00:40:08.115Z,9.38
2022-09-17T00:42:38.451Z,8.13
2022-09-17T00:45:08.298Z,7.00
2022-09-17T00:47:40.404Z,8.77
2022-09-17T00:50:13.620Z,7.57
2022-09-17T00:52:47.282Z,8.70
2022-09-17T00:55:22.912Z,9.38
2022-09-17T00:57:56.495Z,8.48
2022-09-17T01:00:25.520Z,9.18
2022-09-17T01:02:55.684Z,7.93
2022-09-17T01:05:32.818Z,8.10
2022-09-17T01:08:12.381Z,6.65
2022-09-17T01:11:02.870Z,8.73
2022-09-17T01:13:44.435Z,8.98
2022-09-17T01:16:21.200Z,9.13
2022-09-17T01:19:01.682Z,8.90
2022-09-17T01:21:50.906Z,8.95
2022-09-17T01:24:45.065Z,9.02
2022-09-17T01:27:53.009Z,8.52
2022-09-17T01:30:35.596Z,9.68
2022-09-17T01:33:15.197Z,9.85
2022-09-17T01:35:52.606Z,9.60
2022-09-17T01:38:29.139Z,7.35
2022-09-17T01:41:07.896Z,9.20
2022-09-17T01:43:45.043Z,6.90
2022-09-17T01:46:23.482Z,7.28
2022-09-17T01:48:58.256Z,8.85
2022-09-17T01:51:31.237Z,7.72
2022-09-17T01:54:05.711Z,8.05
2022-09-17T01:56:40.691Z,6.93
2022-09-17T01:59:16.582Z,8.43
2022-09-17T02:01:49.766Z,8.70
2022-09-17T02:04:24.506Z,7.88
2022-09-17T02:06:58.648Z,8.05
2022-09-17T02:09:33.441Z,8.77
2022-09-17T02:12:05.744Z,8.60
2022-09-17T02:14:39.379Z,9.40
2022-09-17T02:17:16.814Z,9.07
2022-09-17T02:19:45.858Z,8.73
2022-09-17T02:22:24.560Z,9.23
2022-09-17T02:25:02.548Z,8.07
2022-09-17T02:27:43.092Z,8.23
2022-09-17T02:30:12.552Z,8.60
2022-09-17T02:32:43.267Z,8.98
2022-09-17T02:35:13.997Z,6.05
2022-09-17T02:37:43.734Z,8.20
2022-09-17T02:40:15.316Z,8.23
2022-09-17T02:43:05.265Z,8.05
2022-09-17T02:45:50.580Z,7.85
2022-09-17T02:48:38.827Z,7.18
2022-09-17T02:51:20.975Z,9.45
2022-09-17T02:53:59.396Z,7.78
2022-09-17T02:56:38.460Z,8.35
2022-09-17T02:59:14.635Z,7.20
2022-09-17T03:01:46.229Z,8.35
2022-09-17T03:04:20.272Z,7.90
2022-09-17T03:06:49.642Z,8.43
2022-09-17T03:09:18.802Z,8.18
2022-09-17T03:11:48.137Z,10.48
2022-09-17T03:14:17.014Z,13.23
2022-09-17T03:16:45.891Z,16.70
2022-09-17T03:19:16.377Z,19.30
2022-09-17T03:21:45.247Z,20.35
2022-09-17T03:24:14.114Z,23.52
2022-09-17T03:26:43.125Z,21.90
2022-09-17T03:29:12.097Z,22.33
2022-09-17T03:31:41.229Z,20.98
2022-09-17T03:34:10.321Z,20.83
2022-09-17T03:36:40.584Z,19.15
2022-09-17T03:39:09.702Z,20.83
2022-09-17T03:41:38.608Z,19.48
2022-09-17T03:44:07.656Z,19.52
2022-09-17T03:46:36.594Z,19.70
2022-09-17T03:49:05.662Z,18.88
2022-09-17T03:51:34.670Z,18.35
2022-09-17T03:54:05.331Z,19.15
2022-09-17T03:56:34.629Z,18.85
2022-09-17T03:59:03.543Z,17.95
2022-09-17T04:01:32.532Z,18.55
2022-09-17T04:04:01.584Z,19.95
2022-09-17T04:06:31.013Z,18.75
2022-09-17T04:09:01.013Z,18.42
2022-09-17T04:11:31.366Z,21.08
2022-09-17T04:14:00.351Z,19.33
2022-09-17T04:16:29.411Z,23.10
2022-09-17T04:18:58.358Z,20.63
2022-09-17T04:21:27.383Z,19.92
2022-09-17T04:23:56.477Z,20.70
2022-09-17T04:26:25.407Z,19.67
2022-09-17T04:28:55.716Z,21.40
2022-09-17T04:31:25.194Z,19.83
2022-09-17T04:33:54.221Z,19.52
2022-09-17T04:36:23.259Z,17.23
2022-09-17T04:38:52.395Z,15.35
2022-09-17T04:41:21.378Z,17.70
2022-09-17T04:43:50.424Z,18.35
2022-09-17T04:46:20.922Z,19.35
2022-09-17T04:48:49.805Z,18.80
2022-09-17T04:51:18.694Z,19.00
2022-09-17T04:53:47.591Z,18.45
2022-09-17T04:56:16.437Z,15.65
2022-09-17T04:58:45.334Z,16.00
2022-09-17T05:01:15.415Z,17.05
2022-09-17T05:03:45.697Z,16.58
2022-09-17T05:06:14.746Z,17.75
2022-09-17T05:08:43.789Z,17.48
2022-09-17T05:11:12.698Z,15.70
2022-09-17T05:13:41.720Z,16.23
2022-09-17T05:16:10.719Z,16.10
2022-09-17T05:18:39.783Z,15.15
2022-09-17T05:21:10.102Z,15.93
2022-09-17T05:23:39.220Z,14.05
2022-09-17T05:26:08.305Z,12.55
2022-09-17T05:28:37.213Z,13.40
2022-09-17T05:31:06.485Z,14.93
2022-09-17T05:33:35.437Z,13.57
2022-09-17T05:36:04.445Z,14.23
2022-09-17T05:38:34.836Z,13.27
2022-09-17T05:41:06.638Z,12.50
2022-09-17T05:43:35.570Z,12.07
2022-09-17T05:46:06.041Z,12.93
2022-09-17T05:48:34.996Z,11.18
2022-09-17T05:51:04.157Z,10.23
2022-09-17T05:53:34.495Z,9.73
2022-09-17T05:56:03.706Z,8.80
2022-09-17T05:58:34.455Z,9.02
2022-09-17T06:01:03.451Z,8.07
2022-09-17T06:03:32.515Z,7.82
2022-09-17T06:06:01.964Z,6.95
2022-09-17T06:08:31.092Z,7.05
2022-09-17T06:11:05.410Z,8.80
2022-09-17T06:13:35.484Z,6.85
2022-09-17T06:16:05.065Z,6.50
2022-09-17T06:18:34.221Z,7.53
2022-09-17T06:21:04.254Z,6.70
2022-09-17T06:23:35.422Z,5.90
2022-09-17T06:26:07.392Z,6.90
2022-09-17T06:28:41.219Z,7.05
2022-09-17T06:31:12.562Z,7.25
2022-09-17T06:33:42.145Z,7.35
2022-09-17T06:36:14.381Z,7.07
2022-09-17T06:38:43.596Z,6.65
2022-09-17T06:41:14.749Z,6.80
2022-09-17T06:43:43.969Z,5.32
2022-09-17T06:46:13.197Z,5.38
2022-09-17T06:48:42.124Z,6.13
2022-09-17T06:51:12.674Z,5.47
2022-09-17T06:53:42.237Z,6.40
2022-09-17T06:56:11.327Z,6.13
2022-09-17T06:58:43.850Z,5.55
2022-09-17T07:01:13.815Z,6.53
2022-09-17T07:03:44.331Z,5.18
2022-09-17T07:06:13.818Z,5.55
2022-09-17T07:08:42.801Z,6.18
2022-09-17T07:11:12.082Z,6.95
2022-09-17T07:13:42.823Z,6.05
2022-09-17T07:16:11.826Z,4.80
2022-09-17T07:18:41.031Z,4.75
2022-09-17T07:21:11.916Z,4.85
2022-09-17T07:23:41.104Z,4.22
2022-09-17T07:26:14.822Z,4.63
2022-09-17T07:28:45.586Z,4.47
2022-09-17T07:31:16.703Z,4.28
2022-09-17T07:33:46.299Z,4.28
2022-09-17T07:36:18.016Z,4.32
2022-09-17T07:38:47.398Z,4.15
2022-09-17T07:41:17.820Z,3.17
2022-09-17T07:43:48.521Z,2.70
2022-09-17T07:46:19.314Z,2.72
2022-09-17T07:48:48.913Z,2.20
2022-09-17T07:51:18.884Z,2.25
2022-09-17T07:53:50.264Z,2.60
2022-09-17T07:56:19.441Z,2.92
2022-09-17T07:58:49.958Z,2.63
2022-09-17T08:01:21.357Z,2.17
2022-09-17T08:03:52.055Z,2.53
2022-09-17T08:06:23.344Z,2.28
2022-09-17T08:08:52.369Z,2.42
2022-09-17T08:14:16.828Z,1.50
2022-09-17T08:16:47.505Z,2.10
2022-09-17T08:19:18.125Z,1.85
2022-09-17T08:21:47.322Z,1.92
2022-09-17T08:24:16.307Z,1.45
2022-09-17T08:26:45.334Z,1.60
2022-09-17T08:29:15.910Z,1.40
2022-09-17T08:31:44.985Z,1.45
2022-09-17T08:34:14.163Z,1.48
2022-09-17T08:36:43.290Z,2.15
2022-09-17T08:39:12.361Z,1.70
2022-09-17T08:41:52.960Z,1.45
2022-09-17T08:44:32.052Z,1.85
2022-09-17T08:47:06.600Z,1.70
2022-09-17T08:49:37.735Z,1.23
2022-09-17T08:52:45.544Z,1.92
2022-09-17T08:55:24.817Z,1.23
2022-09-17T08:58:06.563Z,1.17
2022-09-17T09:00:43.652Z,1.10
2022-09-17T09:03:28.556Z,0.98
2022-09-17T09:05:58.326Z,3.38
2022-09-17T09:08:33.403Z,1.73
2022-09-17T09:13:36.639Z,1.10
2022-09-17T09:16:12.936Z,1.20
2022-09-17T09:18:43.279Z,1.00
2022-09-17T09:21:26.193Z,2.33
2022-09-17T09:23:58.831Z,1.52
2022-09-17T09:26:46.348Z,1.27
2022-09-17T09:29:24.574Z,1.48
2022-09-17T09:32:15.868Z,0.77
2022-09-17T09:34:48.849Z,1.20
2022-09-17T09:37:23.544Z,1.15
2022-09-17T09:39:56.369Z,1.30
2022-09-17T09:42:31.860Z,1.20
2022-09-17T09:45:05.549Z,1.10
2022-09-17T09:47:46.410Z,0.75
2022-09-17T09:51:02.256Z,2.05
2022-09-17T09:53:39.550Z,0.70
2022-09-17T09:56:27.195Z,1.30
2022-09-17T09:58:56.552Z,1.45
2022-09-17T10:01:29.194Z,1.38
2022-09-17T10:03:59.803Z,1.52
2022-09-17T10:06:31.736Z,1.17
2022-09-17T10:09:14.758Z,1.08
2022-09-17T10:11:44.402Z,0.95
2022-09-17T10:14:23.554Z,1.10
2022-09-17T10:17:12.073Z,0.90
2022-09-17T10:19:43.151Z,0.77
2022-09-17T10:22:27.288Z,0.80
2022-09-17T10:24:58.615Z,0.95
2022-09-17T10:27:29.289Z,0.90
2022-09-17T10:30:15.310Z,1.00
2022-09-17T10:32:44.667Z,0.93
2022-09-17T10:35:29.338Z,1.15
2022-09-17T10:37:58.391Z,0.90
2022-09-17T10:40:30.880Z,0.85
2022-09-17T10:43:24.575Z,0.80
2022-09-17T10:46:01.686Z,0.95
2022-09-17T10:48:34.839Z,2.17
2022-09-17T10:51:06.887Z,0.80
2022-09-17T10:54:04.711Z,0.90
2022-09-17T10:56:37.125Z,1.10
2022-09-17T10:59:29.439Z,0.85
2022-09-17T11:02:09.840Z,0.70
2022-09-17T11:04:50.510Z,1.10
2022-09-17T11:07:43.412Z,1.05
2022-09-17T11:10:19.865Z,0.90
2022-09-17T11:13:06.095Z,1.13
2022-09-17T11:15:57.034Z,1.20
2022-09-17T11:18:41.047Z,1.38
2022-09-17T11:21:32.239Z,1.00
2022-09-17T11:24:46.836Z,1.05
2022-09-17T11:27:38.803Z,1.77
2022-09-17T11:30:18.358Z,0.90
2022-09-17T11:33:17.283Z,1.48
2022-09-17T11:35:49.966Z,1.05
2022-09-17T11:38:25.287Z,1.00
2022-09-17T11:41:03.270Z,0.88
2022-09-17T11:43:35.883Z,1.10
2022-09-17T11:46:10.734Z,1.00
2022-09-17T11:48:46.791Z,0.98
2022-09-17T11:51:28.447Z,0.90
2022-09-17T11:54:05.260Z,1.15
2022-09-17T11:56:42.802Z,1.13
2022-09-17T11:59:18.782Z,0.93
2022-09-17T12:01:54.262Z,1.10
2022-09-17T12:04:42.504Z,1.17
2022-09-17T12:07:30.002Z,1.27
2022-09-17T12:10:05.163Z,1.40
2022-09-17T12:15:23.658Z,1.55
2022-09-17T12:18:30.069Z,1.35
2022-09-17T12:20:53.801Z,1.20
2022-09-17T12:23:33.979Z,2.03
2022-09-17T12:26:11.634Z,1.70
2022-09-17T12:28:50.440Z,2.05
2022-09-17T12:31:27.001Z,1.50
2022-09-17T12:34:03.435Z,1.30
2022-09-17T12:36:48.772Z,1.33
2022-09-17T12:39:47.671Z,1.15
2022-09-17T12:42:30.172Z,1.27
2022-09-17T12:45:17.851Z,1.00
2022-09-17T12:48:07.956Z,1.30
2022-09-17T12:50:50.814Z,1.10
2022-09-17T12:53:27.728Z,1.30
2022-09-17T12:56:22.323Z,1.38
2022-09-17T12:59:05.515Z,1.33
2022-09-17T13:01:41.306Z,1.48
2022-09-17T13:04:38.189Z,1.30
2022-09-17T13:07:35.726Z,1.75
2022-09-17T13:10:35.030Z,1.85
2022-09-17T13:13:11.298Z,1.10
2022-09-17T13:15:52.549Z,1.70
2022-09-17T13:18:31.045Z,2.80
2022-09-17T13:21:05.691Z,1.92
2022-09-17T13:23:40.137Z,2.63
2022-09-17T13:26:10.652Z,1.40
2022-09-17T13:28:47.030Z,1.30
2022-09-17T13:31:22.642Z,1.30
2022-09-17T13:34:01.045Z,1.60
2022-09-17T13:36:49.328Z,1.40
2022-09-17T13:39:52.007Z,2.00
2022-09-17T13:42:28.125Z,1.77
2022-09-17T13:45:09.980Z,1.70
2022-09-17T13:47:51.548Z,1.63
2022-09-17T13:50:29.812Z,1.33
2022-09-17T13:53:01.073Z,2.58
2022-09-17T13:55:36.714Z,1.50
2022-09-17T13:58:09.776Z,1.40
2022-09-17T14:00:55.458Z,1.42
2022-09-17T14:03:56.581Z,1.23
2022-09-17T14:06:53.532Z,1.35
2022-09-17T14:09:46.516Z,1.40
2022-09-17T14:12:52.302Z,1.25
2022-09-17T14:15:37.108Z,1.40
2022-09-17T14:18:37.898Z,1.20
2022-09-17T14:21:14.883Z,1.33
2022-09-17T14:23:47.556Z,1.33
2022-09-17T14:26:28.140Z,1.50
2022-09-17T14:29:08.322Z,2.13
2022-09-17T14:31:38.429Z,2.10
2022-09-17T14:34:12.568Z,3.65
2022-09-17T14:36:43.888Z,2.20
2022-09-17T14:39:22.970Z,2.70
2022-09-17T14:41:55.896Z,3.17
2022-09-17T14:44:33.061Z,2.28
2022-09-17T14:47:05.326Z,3.28
2022-09-17T14:49:36.246Z,3.63
2022-09-17T14:52:25.524Z,4.30
2022-09-17T14:55:17.880Z,3.58
2022-09-17T14:57:48.048Z,3.05
2022-09-17T15:00:23.533Z,4.03
2022-09-17T15:02:55.756Z,4.35
2022-09-17T15:05:28.567Z,5.35
2022-09-17T15:08:09.557Z,3.78
2022-09-17T15:10:49.132Z,4.13
2022-09-17T15:13:21.081Z,3.42
2022-09-17T15:15:57.833Z,3.35
2022-09-17T15:18:35.219Z,2.83
2022-09-17T15:21:08.466Z,4.57
2022-09-17T15:23:38.694Z,2.20
2022-09-17T15:26:09.543Z,3.60
2022-09-17T15:28:42.883Z,2.78
2022-09-17T15:31:19.223Z,3.17
2022-09-17T15:33:48.830Z,3.00
2022-09-17T15:36:22.682Z,3.15
2022-09-17T15:38:52.966Z,3.30
2022-09-17T15:41:30.145Z,2.97
2022-09-17T15:44:28.990Z,3.38
2022-09-17T15:47:32.271Z,3.17
2022-09-17T15:50:16.163Z,3.70
2022-09-17T15:52:46.206Z,2.50
2022-09-17T15:55:37.441Z,1.65
2022-09-17T15:58:22.313Z,1.67
2022-09-17T16:01:38.496Z,2.08
2022-09-17T16:04:18.950Z,2.65
2022-09-17T16:06:57.583Z,3.88
2022-09-17T16:09:47.041Z,1.52
2022-09-17T16:12:19.050Z,0.90
2022-09-17T16:14:52.340Z,1.58
2022-09-17T16:17:36.745Z,1.20
2022-09-17T16:20:15.515Z,1.60
2022-09-17T16:22:45.343Z,1.50
2022-09-17T16:25:14.512Z,1.30
2022-09-17T16:27:51.424Z,1.60
2022-09-17T16:30:24.021Z,2.70
2022-09-17T16:32:53.864Z,3.22
2022-09-17T16:35:24.649Z,3.40
2022-09-17T16:37:55.090Z,4.05
2022-09-17T16:40:28.245Z,3.47
2022-09-17T16:42:57.450Z,3.17
2022-09-17T16:45:29.159Z,3.50
2022-09-17T16:47:58.791Z,4.00
2022-09-17T16:50:28.516Z,4.10
2022-09-17T16:53:00.482Z,3.88
2022-09-17T16:55:32.200Z,3.70
2022-09-17T16:58:01.445Z,4.10
2022-09-17T17:00:32.031Z,3.40
2022-09-17T17:03:01.452Z,3.78
2022-09-17T17:05:30.716Z,3.97
2022-09-17T17:08:03.263Z,3.55
2022-09-17T17:13:03.849Z,3.03
2022-09-17T17:15:34.286Z,3.85
2022-09-17T17:18:03.479Z,3.35
2022-09-17T17:20:32.505Z,3.60
2022-09-17T17:23:01.738Z,4.00
2022-09-17T17:25:32.359Z,4.07
2022-09-17T17:28:01.482Z,4.60
2022-09-17T17:30:34.718Z,5.22
2022-09-17T17:33:05.656Z,4.82
2022-09-17T17:35:34.898Z,5.35
2022-09-17T17:38:04.079Z,5.32
2022-09-17T17:40:35.071Z,5.45
2022-09-17T17:43:04.525Z,4.75
2022-09-17T17:45:33.950Z,5.10
2022-09-17T17:48:03.604Z,5.38
2022-09-17T17:50:34.938Z,5.93
2022-09-17T17:53:04.241Z,6.47
2022-09-17T17:55:33.367Z,5.90
2022-09-17T17:58:02.766Z,6.50
2022-09-17T18:00:31.991Z,5.93
2022-09-17T18:03:01.372Z,6.45
2022-09-17T18:05:30.602Z,6.55
2022-09-17T18:08:01.202Z,7.03
2022-09-17T18:10:30.372Z,7.78
2022-09-17T18:12:59.914Z,9.23
2022-09-17T18:15:29.124Z,9.35
2022-09-17T18:17:58.648Z,8.27
2022-09-17T18:20:29.374Z,8.52
2022-09-17T18:22:58.672Z,8.25
2022-09-17T18:25:29.667Z,7.90
2022-09-17T18:27:58.898Z,7.65
2022-09-17T18:30:28.151Z,10.13
2022-09-17T18:32:57.281Z,9.27
2022-09-17T18:35:27.445Z,9.45
2022-09-17T18:37:56.690Z,10.35
2022-09-17T18:40:25.910Z,8.55
2022-09-17T18:42:56.565Z,8.65
2022-09-17T18:45:26.166Z,8.20
2022-09-17T18:47:55.412Z,7.40
2022-09-17T18:50:24.687Z,7.43
2022-09-17T18:52:54.129Z,7.25
2022-09-17T18:55:23.566Z,7.10
2022-09-17T18:57:53.485Z,7.35
2022-09-17T19:00:24.523Z,7.85
2022-09-17T19:02:54.937Z,10.15
2022-09-17T19:05:24.312Z,10.95
2022-09-17T19:07:54.022Z,10.30
2022-09-17T19:10:23.427Z,9.27
2022-09-17T19:12:52.684Z,9.05
2022-09-17T19:15:24.327Z,7.43
2022-09-17T19:17:55.105Z,8.48
2022-09-17T19:20:24.642Z,7.82
2022-09-17T19:22:55.460Z,7.07
2022-09-17T19:25:25.400Z,8.55
2022-09-17T19:27:56.253Z,7.35
2022-09-17T19:30:30.050Z,8.52
2022-09-17T19:32:59.687Z,7.00
2022-09-17T19:35:29.653Z,8.52
2022-09-17T19:38:01.736Z,7.28
2022-09-17T19:40:34.163Z,7.90
2022-09-17T19:43:03.901Z,7.35
2022-09-17T19:45:35.143Z,7.65
2022-09-17T19:48:04.619Z,7.07
2022-09-17T19:50:33.855Z,8.52
2022-09-17T19:53:03.265Z,8.45
2022-09-17T19:55:32.359Z,7.50
2022-09-17T19:58:04.721Z,7.05
2022-09-17T20:00:37.079Z,7.18
2022-09-17T20:03:06.445Z,7.93
2022-09-17T20:05:36.230Z,7.18
2022-09-17T20:08:05.762Z,7.03
2022-09-17T20:10:37.050Z,7.35
2022-09-17T20:13:07.384Z,7.20
2022-09-17T20:15:38.030Z,8.65
2022-09-17T20:18:07.411Z,7.40
2022-09-17T20:20:39.633Z,6.68
2022-09-17T20:23:09.550Z,7.68
2022-09-17T20:25:39.909Z,7.10
2022-09-17T20:28:09.060Z,8.27
2022-09-17T20:30:39.504Z,7.65
2022-09-17T20:33:08.581Z,7.55
2022-09-17T20:35:38.702Z,7.65
2022-09-17T20:39:06.853Z,8.13
2022-09-17T20:41:02.197Z,6.93
2022-09-17T20:43:35.819Z,7.03
2022-09-17T20:46:08.267Z,7.73
2022-09-17T20:48:37.857Z,8.20
2022-09-17T20:51:08.621Z,7.38
2022-09-17T20:53:38.361Z,7.18
2022-09-17T20:56:09.443Z,7.50
2022-09-17T20:58:45.402Z,8.52
2022-09-17T21:01:20.557Z,7.38
2022-09-17T21:06:23.865Z,7.25
2022-09-17T21:11:25.384Z,8.18
2022-09-17T21:13:54.883Z,8.23
2022-09-17T21:16:25.469Z,8.13
2022-09-17T21:18:58.103Z,7.85
2022-09-17T21:21:27.832Z,8.30
2022-09-17T21:24:01.347Z,7.45
2022-09-17T21:26:30.880Z,7.57
2022-09-17T21:29:00.432Z,8.23
2022-09-17T21:31:33.497Z,8.02
2022-09-17T21:34:04.254Z,8.05
2022-09-17T21:36:35.254Z,7.28
2022-09-17T21:39:06.738Z,8.45
2022-09-17T21:41:41.392Z,7.28
2022-09-17T21:44:12.426Z,7.55
2022-09-17T21:46:43.635Z,7.05
2022-09-17T21:49:13.555Z,7.07
2022-09-17T21:51:44.030Z,6.88
2022-09-17T21:54:15.963Z,8.05
2022-09-17T21:56:47.012Z,6.45
2022-09-17T21:59:17.314Z,6.80
2022-09-17T22:01:50.727Z,7.03
2022-09-17T22:04:22.201Z,7.25
2022-09-17T22:06:51.632Z,7.00
2022-09-17T22:09:22.992Z,7.15
2022-09-17T22:11:53.350Z,7.68
2022-09-17T22:14:24.350Z,7.78
2022-09-17T22:16:57.269Z,7.15
2022-09-17T22:19:26.979Z,7.15
2022-09-17T22:21:57.237Z,8.10
2022-09-17T22:24:26.714Z,8.23
2022-09-17T22:26:58.126Z,7.53
2022-09-17T22:29:31.659Z,8.05
2022-09-17T22:32:03.078Z,7.55
2022-09-17T22:34:32.071Z,8.32
2022-09-17T22:37:01.072Z,7.00
2022-09-17T22:39:30.032Z,7.82
2022-09-17T22:41:59.154Z,6.90
2022-09-17T22:44:28.209Z,8.25
2022-09-17T22:46:57.215Z,6.80
2022-09-17T22:49:27.705Z,6.28
2022-09-17T22:51:56.674Z,7.13
2022-09-17T22:54:25.776Z,6.30
2022-09-17T22:56:54.649Z,7.25
2022-09-17T22:59:23.510Z,6.55
2022-09-17T23:01:52.472Z,6.50
2022-09-17T23:04:21.414Z,6.07
2022-09-17T23:06:51.824Z,6.95
2022-09-17T23:09:20.674Z,6.40
2022-09-17T23:11:49.775Z,6.70
2022-09-17T23:14:19.658Z,6.95
2022-09-17T23:16:50.057Z,6.65
2022-09-17T23:19:19.984Z,6.13
2022-09-17T23:21:48.886Z,6.15
2022-09-17T23:24:21.673Z,7.15
2022-09-17T23:26:51.421Z,6.55
2022-09-17T23:29:20.451Z,7.75
2022-09-17T23:31:49.391Z,5.90
2022-09-17T23:34:18.356Z,6.55
2022-09-17T23:36:47.575Z,6.28
2022-09-17T23:39:16.485Z,5.95
2022-09-17T23:41:48.091Z,6.35
2022-09-17T23:44:17.089Z,5.85
2022-09-17T23:46:46.990Z,5.90
2022-09-17T23:49:16.851Z,5.93
2022-09-17T23:51:46.111Z,6.10
2022-09-17T23:54:15.025Z,6.22
2022-09-17T23:56:43.962Z,6.97
2022-09-17T23:59:14.281Z,7.95
